Monday, May 02, 2016
01:23 UTC
  |  Log In   |  Register Free
Airport Search:

Lincoln Airport
(KLNK)

FAA data valid effective Mar 31 2016 - May 26 2016 (unless otherwise noted).

 
 
 
 
 
 
 
 
 
 
 
 
 
 
Current Aviation Weather for KLNK

Weather Summary


The most recent METAR observation for LNK was updated at: 12:54 UTC
METAR for KLNK is not available. Closest METAR is for KAHQ
KLNK  (most recent observation was updatred at 12:35 UTC)
012354Z 02007KT 10SM BKN024 OVC031 10/06 A3016 RMK AO2 SLP216 T01000056 10106 20083 53002

KAHQ  (24.6 nm SW)   (most recent observation was updated at 12:35 UTC)
012355Z AUTO 01009KT 10SM OVC033 10/07 A3013 RMK AO2 T01000065 10102 20080

KBIE  (33.0 nm NW)   (most recent observation was updated at 12:35 UTC)
012355Z AUTO 02009KT 10SM BKN023 OVC029 09/06 A3014 RMK AO2 T00880057 10092 20078

TAF for KLNK is not available.
KLNK
012320Z 0200/0224 36011KT P6SM BKN025 FM020200 35006KT P6SM BKN040 FM021100 34005KT P6SM SCT050

GlobalAir.com is loading additional information.
 Current Weather at LNK
50.0 F° (10.0 C°)

North winds at 8.1 mph
Pressure:
30.16 in
Humidity:
74%
Wind:
North at 8.1 mph
Dew Point:
42.1 F° (5.6 C°)
Visibility:
10.00 mi
LNK NOAA Radar




Find All Airport Services Find A Hotel Find A Rental Car Find A Golf Course Find A Restaurant $100 Hamburger



Airport Weather Forecast for KLNK

Translated METAR for KLNK (2354 UTC)
METAR:
KLNK 012354Z 02007KT 10SM BKN024 OVC031 10/06 A3016 RMK AO2 SLP216 T01000056 10106 20083 53002
Conditions at:
KLNK (Lincoln, NE) observed 2354 UTC 01 May 2016
Temperature:
10°C (50°F)
Dewpoint:
6°C (42.8°F) [RH = 76.2]
Pressure:
30.16 inches Hg (1021.3 mb)
pressure at sea level is 216 in Hg
Winds:
from the NNE (020 degrees) at 8.1 mph (7 knots: 3.6 m/s)
Visibility:
10 mile(s)
Ceiling:
2,400 feet AGL
Clouds:
Broken Cloud Cover at 2,400 feet AGL
Overcast Skies at 3,100 feet AGL
Remarks:
site is automated and HAS a precipitation sensor

Translated TAF for KLNK (Lincoln, NE) (2320 UTC)
TAF text:
KLNK 012320Z 0200/0224 36011KT P6SM BKN025
Forecast period:
Monday May 02 2016 00:00 UTC - Monday May 02 2016 24:00 UTC
Forecast type:
FROM: standard forecast or significant change
Winds:
from the N (360 degrees) at 12.7 mph (11 knots: 5.7 m/s)
Visibility:
6 or more mile(s) (9.7+ km)
Ceiling:
2,500 feet AGL
Clouds:
Broken Cloud Cover at 2,500 feet AGL
Weather:
no significant weather observed at this time
TAF text:
FM020200 35006KT P6SM BKN040
Forecast period:
Monday May 02 2016 02:00 UTC - Monday May 02 2016 11:00 UTC
Forecast type:
FROM: standard forecast or significant change
Winds:
from the N (350 degrees) at 6.9 mph (6 knots: 3.1 m/s)
Visibility:
6 or more mile(s) (9.7+ km)
Ceiling:
4,000 feet AGL
Clouds:
Broken Cloud Cover at 4,000 feet AGL
Weather:
no significant weather observed at this time
TAF text:
FM021100 34005KT P6SM SCT050
Forecast period:
Monday May 02 2016 11:00 UTC - Monday May 02 2016 24:00 UTC
Forecast type:
FROM: standard forecast or significant change
Winds:
from the NNW (340 degrees) at 5.8 mph (5 knots: 2.6 m/s)
Visibility:
6 or more mile(s) (9.7+ km)
Ceiling:
at least 12,000 feet AGL
Clouds:
Scattered Clouds at 5,000 feet AGL
Weather:
no significant weather observed at this time
FBO's on the Field
FBO Company Facility Photos Services Transportation Aviation Fuel Prices: Prices include tax
Catering Weather Repair Courtesy Rental Type 100LL JetA JetA+ MOGAS 8087
 
Duncan Aviation

This FBO has not yet been rated
FS:Avfuel
Last Updated: Apr-26
Login to update fuel prices
SS:
Contact Duncan AviationMore FBO Information
 
Silverhawk Aviation

This FBO has not yet been rated
FS:Phillips 66
Last Updated: Apr-26
Login to update fuel prices
SS:
Contact Silverhawk AviationMore FBO Information
 
Add another FBO Facility Photos Catering Weather Repair Courtesy Rental Type 100LL JetA JetA+ MOGAS 8087
Services Transportation Aviation Fuel Prices: Prices include tax


model-print
model-print
model-print
model-print